Time;durP1;ratioP1;P1;durP2;ratioP2;P2;SDS_P1;SDS_P2;PMS_P1;PMS_P2;Temp;Humidity;BMP_temperature;BMP_pressure;BME280_temperature;BME280_humidity;BME280_pressure;Samples;Min_cycle;Max_cycle;Signal;HPM_P1;HPM_P2
2023/04/17 00:00:51;;;;;;;38.97;21.27;;;11.80;99.90;;;;;;5005111;28;20037;-87
2023/04/17 00:03:17;;;;;;;55.53;22.08;;;11.80;99.90;;;;;;5001115;28;20276;-87
2023/04/17 00:05:45;;;;;;;43.00;22.17;;;11.80;99.90;;;;;;5003774;28;20120;-87
2023/04/17 00:08:11;;;;;;;41.90;21.38;;;11.80;99.90;;;;;;5000362;28;20800;-86
2023/04/17 00:10:44;;;;;;;45.83;21.67;;;11.80;99.90;;;;;;5002035;28;20022;-86
2023/04/17 00:13:11;;;;;;;46.85;22.50;;;11.80;99.90;;;;;;4991629;28;20041;-87
2023/04/17 00:15:44;;;;;;;42.05;21.88;;;11.70;99.90;;;;;;5006879;28;20026;-86
2023/04/17 00:18:12;;;;;;;;;;;11.80;99.90;;;;;;4995923;28;20116;-87
2023/04/17 00:20:38;;;;;;;36.72;20.50;;;11.80;99.90;;;;;;5003190;28;19913;-85
2023/04/17 00:23:04;;;;;;;41.28;21.08;;;11.80;99.90;;;;;;5000456;28;20030;-87
2023/04/17 00:25:29;;;;;;;41.80;21.30;;;11.70;99.90;;;;;;5000895;28;20394;-86
2023/04/17 00:27:55;;;;;;;40.47;21.35;;;11.70;99.90;;;;;;5000056;28;20037;-86
2023/04/17 00:30:21;;;;;;;45.80;22.95;;;11.80;99.90;;;;;;5016493;28;20030;-85
2023/04/17 00:32:46;;;;;;;39.72;21.20;;;11.80;99.90;;;;;;5010504;28;20428;-85
2023/04/17 00:35:12;;;;;;;39.38;22.00;;;11.80;99.90;;;;;;5001706;28;20164;-85
2023/04/17 00:37:38;;;;;;;42.03;21.13;;;11.90;99.90;;;;;;5001037;28;20025;-85
2023/04/17 00:40:04;;;;;;;42.38;21.63;;;11.80;99.90;;;;;;5002463;28;20022;-88
2023/04/17 00:42:29;;;;;;;40.33;21.77;;;11.80;99.90;;;;;;4993877;28;20025;-85
2023/04/17 00:44:56;;;;;;;40.17;20.25;;;11.70;99.90;;;;;;5001638;28;20023;-85
2023/04/17 00:47:21;;;;;;;41.30;20.77;;;11.80;99.90;;;;;;5001830;28;20290;-86
2023/04/17 00:49:49;;;;;;;43.83;22.27;;;11.80;99.90;;;;;;5000606;28;20386;-85
2023/04/17 00:52:26;;;;;;;46.58;23.38;;;11.80;99.90;;;;;;4992032;28;20030;-85
2023/04/17 00:54:53;;;;;;;44.35;22.35;;;11.70;99.90;;;;;;5037454;28;20272;-85
2023/04/17 00:57:18;;;;;;;45.15;22.83;;;11.70;99.90;;;;;;5015730;28;20595;-86
2023/04/17 00:59:46;;;;;;;45.45;22.00;;;11.70;99.90;;;;;;5000634;28;20045;-86
2023/04/17 01:02:12;;;;;;;48.67;22.20;;;11.60;99.90;;;;;;5001394;28;20018;-85
2023/04/17 01:04:38;;;;;;;46.30;23.13;;;11.60;99.90;;;;;;4999102;28;20239;-86
2023/04/17 01:07:03;;;;;;;49.50;22.90;;;11.60;99.90;;;;;;5003199;28;20245;-86
2023/04/17 01:09:30;;;;;;;43.67;21.98;;;11.50;99.90;;;;;;5002998;28;20117;-86
2023/04/17 01:12:18;;;;;;;51.13;22.95;;;11.50;99.90;;;;;;4998536;28;20018;-85
2023/04/17 01:14:44;;;;;;;46.10;23.15;;;11.40;99.90;;;;;;5002541;28;20022;-85
2023/04/17 01:17:13;;;;;;;51.60;24.20;;;11.50;99.90;;;;;;5008237;28;20213;-85
2023/04/17 01:19:40;;;;;;;51.70;25.67;;;11.40;99.90;;;;;;5008005;28;20090;-85
2023/04/17 01:22:06;;;;;;;48.17;25.52;;;11.40;99.90;;;;;;5000634;28;20629;-85
2023/04/17 01:24:31;;;;;;;52.30;27.00;;;11.50;99.90;;;;;;5001382;28;20025;-86
2023/04/17 01:26:57;;;;;;;55.35;25.67;;;11.40;99.90;;;;;;5000485;28;20528;-85
2023/04/17 01:29:23;;;;;;;50.25;25.35;;;11.40;99.90;;;;;;4999007;28;20607;-85
2023/04/17 01:31:48;;;;;;;47.97;25.30;;;11.50;99.90;;;;;;4997758;28;20037;-85
2023/04/17 01:34:16;;;;;;;51.83;24.88;;;11.40;99.90;;;;;;4999814;28;20183;-86
2023/04/17 01:36:42;;;;;;;52.30;26.02;;;11.40;99.90;;;;;;5015486;28;20102;-86
2023/04/17 01:39:07;;;;;;;53.05;25.67;;;11.40;99.90;;;;;;4997739;28;20048;-86
2023/04/17 01:41:33;;;;;;;45.55;23.95;;;11.50;99.90;;;;;;5009805;28;20018;-86
2023/04/17 01:43:59;;;;;;;50.42;23.38;;;11.50;99.90;;;;;;5000127;28;20018;-85
2023/04/17 01:46:24;;;;;;;47.97;23.92;;;11.50;99.90;;;;;;5000112;28;20029;-85
2023/04/17 01:48:50;;;;;;;51.67;24.67;;;11.40;99.90;;;;;;4999757;28;20025;-86
2023/04/17 01:51:16;;;;;;;51.42;25.33;;;11.30;99.90;;;;;;5000416;28;20026;-85
2023/04/17 01:53:42;;;;;;;48.95;25.40;;;11.30;99.90;;;;;;5006756;28;20099;-87
2023/04/17 01:56:11;;;;;;;51.25;25.38;;;11.20;99.90;;;;;;5001187;28;20026;-86
2023/04/17 01:58:39;;;;;;;56.90;26.15;;;11.20;99.90;;;;;;5003620;28;20033;-86
2023/04/17 02:01:05;;;;;;;54.28;26.17;;;11.30;99.90;;;;;;4998487;28;20030;-86
2023/04/17 02:03:31;;;;;;;54.92;26.50;;;11.30;99.90;;;;;;4997395;28;20041;-85
2023/04/17 02:05:57;;;;;;;54.83;26.98;;;11.30;99.90;;;;;;5000479;28;20029;-86
2023/04/17 02:08:26;;;;;;;50.83;25.02;;;11.30;99.90;;;;;;5001505;28;20034;-85
2023/04/17 02:10:52;;;;;;;55.85;26.95;;;11.30;99.90;;;;;;5000518;28;20025;-87
2023/04/17 02:13:17;;;;;;;59.63;27.63;;;11.30;99.90;;;;;;4999520;28;20493;-86
2023/04/17 02:15:45;;;;;;;52.38;25.65;;;11.30;99.90;;;;;;5001564;28;20057;-86
2023/04/17 02:18:11;;;;;;;54.65;25.35;;;11.30;99.90;;;;;;4999931;28;20030;-86
2023/04/17 02:20:37;;;;;;;52.40;25.77;;;11.20;99.90;;;;;;5003586;28;20289;-86
2023/04/17 02:23:04;;;;;;;56.92;25.77;;;11.20;99.90;;;;;;5002200;28;20025;-85
2023/04/17 02:25:30;;;;;;;52.95;25.75;;;11.20;99.90;;;;;;4999026;28;20084;-85
2023/04/17 02:27:56;;;;;;;55.20;27.15;;;11.20;99.90;;;;;;5000997;28;20037;-86
2023/04/17 02:30:23;;;;;;;53.88;25.15;;;11.20;99.90;;;;;;5003124;28;20405;-86
2023/04/17 02:32:50;;;;;;;59.72;27.10;;;11.30;99.90;;;;;;5027780;28;20037;-85
2023/04/17 02:35:17;;;;;;;61.05;27.45;;;11.20;99.90;;;;;;5009623;28;20083;-85
2023/04/17 02:37:42;;;;;;;58.75;26.35;;;11.20;99.90;;;;;;5020195;28;20038;-85
2023/04/17 02:40:09;;;;;;;52.15;26.00;;;11.20;99.90;;;;;;5002351;28;20034;-86
2023/04/17 02:42:35;;;;;;;59.58;27.65;;;11.20;99.90;;;;;;5001515;28;20038;-85
2023/04/17 02:45:01;;;;;;;61.00;27.20;;;11.20;99.90;;;;;;4996373;28;20030;-85
2023/04/17 02:47:27;;;;;;;55.28;26.63;;;11.20;99.90;;;;;;5002434;28;20029;-86
2023/04/17 02:49:54;;;;;;;56.70;26.27;;;11.20;99.90;;;;;;4995721;28;20053;-85
2023/04/17 02:52:20;;;;;;;54.53;26.88;;;11.20;99.90;;;;;;5018449;28;20485;-85
2023/04/17 02:54:45;;;;;;;58.03;27.67;;;11.20;99.90;;;;;;5002468;28;20120;-85
2023/04/17 02:57:11;;;;;;;60.72;28.92;;;11.20;99.90;;;;;;5003982;28;20051;-85
2023/04/17 02:59:36;;;;;;;57.63;27.13;;;11.10;99.90;;;;;;5003135;28;20049;-86
2023/04/17 03:02:03;;;;;;;62.03;27.63;;;11.10;99.90;;;;;;5002630;28;20069;-85
2023/04/17 03:04:28;;;;;;;56.13;27.05;;;11.10;99.90;;;;;;5001633;28;20164;-86
2023/04/17 03:06:54;;;;;;;60.38;27.58;;;11.10;99.90;;;;;;5003705;28;20109;-85
2023/04/17 03:09:23;;;;;;;61.15;27.60;;;11.00;99.90;;;;;;5002670;28;20785;-85
2023/04/17 03:11:49;;;;;;;58.45;27.42;;;11.00;99.90;;;;;;5003140;28;20014;-85
2023/04/17 03:14:14;;;;;;;65.72;29.85;;;11.00;99.90;;;;;;5001442;28;20030;-85
2023/04/17 03:16:40;;;;;;;62.05;28.10;;;10.90;99.90;;;;;;5001384;28;20030;-85
2023/04/17 03:19:08;;;;;;;64.85;27.38;;;10.90;99.90;;;;;;5003741;28;20107;-85
2023/04/17 03:21:34;;;;;;;56.15;28.48;;;10.90;99.90;;;;;;5001875;28;20042;-85
2023/04/17 03:24:00;;;;;;;67.22;29.13;;;10.80;99.90;;;;;;5004391;28;20112;-85
2023/04/17 03:26:25;;;;;;;59.30;27.08;;;10.90;99.90;;;;;;5009136;28;20107;-85
2023/04/17 03:28:51;;;;;;;58.28;27.17;;;10.90;99.90;;;;;;5002501;28;20078;-85
2023/04/17 03:31:17;;;;;;;66.70;30.38;;;10.90;99.90;;;;;;5002571;28;20100;-85
2023/04/17 03:33:42;;;;;;;61.95;27.73;;;10.90;99.90;;;;;;5003540;28;20808;-86
2023/04/17 03:36:08;;;;;;;60.55;26.75;;;10.90;99.90;;;;;;4999388;28;20211;-85
2023/04/17 03:38:35;;;;;;;58.47;27.85;;;11.00;99.90;;;;;;5016309;28;20026;-85
2023/04/17 03:41:00;;;;;;;53.55;26.63;;;11.00;99.90;;;;;;5004444;28;20109;-85
2023/04/17 03:43:26;;;;;;;57.50;27.63;;;11.00;99.90;;;;;;5002882;28;20449;-86
2023/04/17 03:45:52;;;;;;;62.92;28.67;;;11.00;99.90;;;;;;5004204;28;20117;-85
2023/04/17 03:48:20;;;;;;;63.63;29.40;;;11.00;99.90;;;;;;5005969;28;20045;-86
2023/04/17 03:50:47;;;;;;;60.50;28.60;;;11.00;99.90;;;;;;5003149;28;20091;-86
2023/04/17 03:53:12;;;;;;;66.18;28.05;;;10.90;99.90;;;;;;5005228;28;20109;-86
2023/04/17 03:55:38;;;;;;;60.70;29.50;;;11.00;99.90;;;;;;5005171;28;20117;-86
2023/04/17 03:58:03;;;;;;;62.22;29.17;;;11.10;99.90;;;;;;5003854;28;20080;-85
2023/04/17 04:00:30;;;;;;;55.88;27.48;;;11.00;99.90;;;;;;5012860;28;20143;-85
2023/04/17 04:02:58;;;;;;;64.93;28.55;;;11.10;99.90;;;;;;5012543;28;20026;-85
2023/04/17 04:05:26;;;;;;;63.33;29.20;;;11.20;99.90;;;;;;5017615;28;20084;-87
2023/04/17 04:07:52;;;;;;;63.13;27.88;;;11.20;99.90;;;;;;5013039;28;20457;-85
2023/04/17 04:10:17;;;;;;;64.22;29.38;;;11.20;99.90;;;;;;5007613;28;20019;-86
2023/04/17 04:12:43;;;;;;;62.00;30.20;;;11.10;99.90;;;;;;5005923;28;20014;-86
2023/04/17 04:15:09;;;;;;;61.55;28.15;;;11.10;99.90;;;;;;5024808;28;20095;-86
2023/04/17 04:17:34;;;;;;;69.60;29.45;;;11.10;99.90;;;;;;5025900;28;20137;-87
2023/04/17 04:20:00;;;;;;;61.70;29.27;;;11.10;99.90;;;;;;5020248;28;20026;-86
2023/04/17 04:22:26;;;;;;;65.60;30.63;;;11.10;99.90;;;;;;5001948;28;20022;-85
2023/04/17 04:24:52;;;;;;;66.20;29.65;;;11.10;99.90;;;;;;5005236;28;20054;-85
2023/04/17 04:27:21;;;;;;;64.60;29.83;;;11.10;99.90;;;;;;5002219;28;20563;-86
2023/04/17 04:29:47;;;;;;;64.00;30.80;;;11.10;99.90;;;;;;5000697;28;20049;-87
2023/04/17 04:32:14;;;;;;;58.47;28.10;;;11.10;99.90;;;;;;5002009;28;20641;-86
2023/04/17 04:34:43;;;;;;;63.28;29.67;;;11.00;99.90;;;;;;5002482;28;20393;-86
2023/04/17 04:37:12;;;;;;;64.53;30.00;;;11.00;99.90;;;;;;5002272;28;20057;-86
2023/04/17 04:39:38;;;;;;;66.40;31.38;;;11.00;99.90;;;;;;5001164;28;20026;-87
2023/04/17 04:42:08;;;;;;;64.60;29.15;;;11.00;99.90;;;;;;5003185;28;20068;-87
2023/04/17 04:44:36;;;;;;;63.95;31.02;;;11.00;99.90;;;;;;4997513;28;20510;-86
2023/04/17 04:47:01;;;;;;;65.03;31.17;;;11.00;99.90;;;;;;5003580;28;20060;-86
2023/04/17 04:49:29;;;;;;;63.60;30.45;;;11.00;99.90;;;;;;4995904;28;20061;-86
2023/04/17 04:51:55;;;;;;;70.35;30.08;;;11.00;99.90;;;;;;4995255;28;20113;-87
2023/04/17 04:54:21;;;;;;;67.55;29.88;;;11.00;99.90;;;;;;5002700;28;20113;-85
2023/04/17 04:56:46;;;;;;;65.35;31.08;;;11.00;99.90;;;;;;5001918;28;20458;-85
2023/04/17 04:59:12;;;;;;;63.88;31.95;;;11.10;99.90;;;;;;5002928;28;20034;-85
2023/04/17 05:01:40;;;;;;;65.03;29.85;;;11.10;99.90;;;;;;5002680;28;20039;-86
2023/04/17 05:04:05;;;;;;;62.92;29.67;;;11.10;99.90;;;;;;4998624;28;20022;-86
2023/04/17 05:06:31;;;;;;;66.53;30.15;;;11.10;99.90;;;;;;5006973;28;20036;-86
2023/04/17 05:09:04;;;;;;;67.70;31.80;;;11.10;99.90;;;;;;5000146;28;20109;-85
2023/04/17 05:11:31;;;;;;;62.25;30.58;;;11.10;99.90;;;;;;4996628;28;20014;-86
2023/04/17 05:14:04;;;;;;;63.00;29.95;;;11.10;99.90;;;;;;5001199;28;20481;-86
2023/04/17 05:16:29;;;;;;;;;;;11.10;99.90;;;;;;5001287;28;20725;-86
2023/04/17 05:18:55;;;;;;;75.88;31.50;;;11.10;99.90;;;;;;5002626;28;20000;-86
2023/04/17 05:21:21;;;;;;;61.38;30.23;;;11.00;99.90;;;;;;5002357;28;20068;-86
2023/04/17 05:23:46;;;;;;;71.15;31.20;;;11.00;99.90;;;;;;5001191;28;20560;-86
2023/04/17 05:26:12;;;;;;;64.45;31.90;;;11.10;99.90;;;;;;5012630;28;20409;-86
2023/04/17 05:28:38;;;;;;;67.07;31.95;;;11.10;99.90;;;;;;5001110;28;20840;-87
2023/04/17 05:31:04;;;;;;;63.65;30.75;;;11.10;99.90;;;;;;5000698;28;20362;-86
2023/04/17 05:33:37;;;;;;;73.10;32.03;;;11.20;99.90;;;;;;5001831;28;20021;-90
2023/04/17 05:36:03;;;;;;;64.90;32.45;;;11.20;99.90;;;;;;5000316;28;20028;-82
2023/04/17 05:38:28;;;;;;;66.43;31.85;;;11.20;99.90;;;;;;4998097;28;20460;-85
2023/04/17 05:40:54;;;;;;;67.13;33.60;;;11.10;99.90;;;;;;5002393;28;20022;-84
2023/04/17 05:43:20;;;;;;;69.03;32.55;;;11.30;99.90;;;;;;4996522;28;20026;-85
2023/04/17 05:45:46;;;;;;;65.40;31.10;;;11.30;99.90;;;;;;5000670;28;20018;-85
2023/04/17 05:48:12;;;;;;;70.70;32.47;;;11.40;99.90;;;;;;5000704;28;20120;-85
2023/04/17 05:50:37;;;;;;;70.40;32.53;;;11.30;99.90;;;;;;4996939;28;20791;-85
2023/04/17 05:53:03;;;;;;;74.85;34.10;;;11.50;99.90;;;;;;5000682;28;20031;-84
2023/04/17 05:55:29;;;;;;;66.90;32.97;;;11.50;99.90;;;;;;4999073;28;20505;-84
2023/04/17 05:57:55;;;;;;;69.35;31.95;;;11.60;99.90;;;;;;5001704;28;20361;-85
2023/04/17 06:00:21;;;;;;;67.53;32.58;;;11.50;99.90;;;;;;5000265;28;20478;-86
2023/04/17 06:02:51;;;;;;;69.68;31.30;;;11.60;99.90;;;;;;5001387;28;20026;-87
2023/04/17 06:05:16;;;;;;;68.72;31.90;;;11.60;99.90;;;;;;5003907;28;20045;-87
2023/04/17 06:07:42;;;;;;;67.00;30.98;;;11.60;99.90;;;;;;5000317;28;20026;-86
2023/04/17 06:10:09;;;;;;;60.80;31.00;;;11.60;99.90;;;;;;4999351;28;20025;-87
2023/04/17 06:12:36;;;;;;;68.63;32.20;;;11.80;99.90;;;;;;4997396;28;20088;-85
2023/04/17 06:15:03;;;;;;;64.63;30.67;;;11.80;99.90;;;;;;5000685;28;20022;-84
2023/04/17 06:17:31;;;;;;;63.65;32.00;;;11.80;99.90;;;;;;5011090;28;20018;-84
2023/04/17 06:19:57;;;;;;;59.95;30.80;;;11.80;99.90;;;;;;5011727;28;20022;-85
2023/04/17 06:22:25;;;;;;;63.17;31.45;;;11.70;99.90;;;;;;4999481;28;20041;-84
2023/04/17 06:24:50;;;;;;;57.25;30.38;;;11.70;99.90;;;;;;5000211;28;20100;-85
2023/04/17 06:27:16;;;;;;;62.45;31.27;;;11.80;99.90;;;;;;5000001;28;20530;-84
2023/04/17 06:29:42;;;;;;;66.13;31.27;;;11.80;99.90;;;;;;5010699;28;20679;-85
2023/04/17 06:32:07;;;;;;;61.67;28.65;;;11.90;99.90;;;;;;5010764;28;20851;-85
2023/04/17 06:34:33;;;;;;;59.97;29.83;;;11.90;99.90;;;;;;5003012;28;20497;-84
2023/04/17 06:36:59;;;;;;;58.70;29.08;;;11.90;99.90;;;;;;5003817;28;20535;-84
2023/04/17 06:39:25;;;;;;;60.78;29.90;;;12.00;99.90;;;;;;5004206;28;20053;-84
2023/04/17 06:41:50;;;;;;;62.13;29.80;;;12.10;99.90;;;;;;4997258;28;20050;-84
2023/04/17 06:44:17;;;;;;;60.33;29.85;;;12.10;99.90;;;;;;5008406;28;20029;-84
2023/04/17 06:46:43;;;;;;;62.83;30.77;;;12.10;99.90;;;;;;5003859;28;20026;-84
2023/04/17 06:49:08;;;;;;;57.85;30.10;;;12.20;99.90;;;;;;5001463;28;20044;-84
2023/04/17 06:51:34;;;;;;;60.33;29.77;;;12.20;99.90;;;;;;5004541;28;20022;-84
2023/04/17 06:53:59;;;;;;;54.20;28.70;;;12.20;99.90;;;;;;5003005;28;20018;-84
2023/04/17 06:56:25;;;;;;;56.00;29.33;;;12.30;99.90;;;;;;5002409;28;20045;-84
2023/04/17 06:58:53;;;;;;;55.92;28.67;;;12.40;99.90;;;;;;5005247;28;20504;-84
2023/04/17 07:01:19;;;;;;;57.85;29.08;;;12.50;99.90;;;;;;5003035;28;20079;-84
2023/04/17 07:03:53;;;;;;;55.05;28.13;;;12.60;99.90;;;;;;5004122;28;20021;-84
2023/04/17 07:06:19;;;;;;;56.80;29.77;;;12.60;99.90;;;;;;5003441;28;20014;-84
2023/04/17 07:08:44;;;;;;;59.13;30.77;;;12.60;99.90;;;;;;5005384;28;20172;-84
2023/04/17 07:11:10;;;;;;;59.28;29.15;;;12.60;99.90;;;;;;5009715;28;20570;-84
2023/04/17 07:13:36;;;;;;;57.83;29.60;;;12.60;99.90;;;;;;5015594;28;20040;-84
2023/04/17 07:16:02;;;;;;;51.78;27.70;;;12.70;99.90;;;;;;5017097;28;20020;-84
2023/04/17 07:18:30;;;;;;;53.90;28.55;;;12.70;99.90;;;;;;5003903;28;20021;-84
2023/04/17 07:20:56;;;;;;;55.05;28.17;;;12.90;99.90;;;;;;5004977;28;20049;-84
2023/04/17 07:23:22;;;;;;;53.63;28.15;;;12.90;99.90;;;;;;4997966;28;20022;-84
2023/04/17 07:26:05;;;;;;;56.92;29.88;;;12.90;99.90;;;;;;5006094;28;20022;-91
2023/04/17 07:28:39;;;;;;;59.03;29.00;;;12.90;99.90;;;;;;5005843;28;20042;-85
2023/04/17 07:31:12;;;;;;;51.45;27.38;;;13.00;99.90;;;;;;4999800;28;20041;-84
2023/04/17 07:33:38;;;;;;;;;;;13.00;99.90;;;;;;5009521;28;20730;-89
2023/04/17 07:36:08;;;;;;;59.28;27.13;;;13.00;99.90;;;;;;5014363;28;19952;-84
2023/04/17 07:38:36;;;;;;;60.78;29.85;;;13.00;99.90;;;;;;5014394;28;20018;-84
2023/04/17 07:41:02;;;;;;;51.55;27.50;;;13.00;99.90;;;;;;5009514;28;20030;-83
2023/04/17 07:43:30;;;;;;;54.53;27.88;;;13.00;99.90;;;;;;4999289;28;20038;-85
2023/04/17 07:45:57;;;;;;;56.00;29.13;;;13.10;99.90;;;;;;4997976;28;20054;-85
2023/04/17 07:48:23;;;;;;;50.95;28.08;;;13.10;99.90;;;;;;5002161;28;20554;-83
2023/04/17 07:50:49;;;;;;;52.20;28.30;;;13.20;99.90;;;;;;4999010;28;20102;-84
2023/04/17 07:53:27;;;;;;;56.75;27.65;;;13.30;99.90;;;;;;4997775;28;20032;-85
2023/04/17 07:55:54;;;;;;;61.55;29.92;;;13.40;99.90;;;;;;4995924;28;20064;-88
2023/04/17 07:58:19;;;;;;;55.25;28.85;;;13.60;99.90;;;;;;5000574;28;20046;-85
2023/04/17 08:00:52;;;;;;;50.08;28.20;;;13.70;99.90;;;;;;4997085;28;20446;-84
2023/04/17 08:03:22;;;;;;;51.35;27.45;;;13.90;99.90;;;;;;5003436;28;20026;-85
2023/04/17 08:05:50;;;;;;;49.63;27.25;;;14.10;99.90;;;;;;5000338;28;20022;-84
2023/04/17 08:08:16;;;;;;;46.75;27.00;;;14.20;99.90;;;;;;5004081;28;20034;-84
2023/04/17 08:10:45;;;;;;;54.50;26.63;;;14.30;99.90;;;;;;5001464;28;20597;-84
2023/04/17 08:13:13;;;;;;;49.60;28.42;;;14.40;99.90;;;;;;5002190;28;20390;-84
2023/04/17 08:15:39;;;;;;;61.13;30.40;;;14.40;99.90;;;;;;5004604;28;20019;-96
2023/04/17 08:18:09;;;;;;;48.50;27.58;;;14.40;99.90;;;;;;5005994;28;21109;-84
2023/04/17 08:20:35;;;;;;;46.17;25.98;;;14.50;99.90;;;;;;5013549;28;20402;-84
2023/04/17 08:23:01;;;;;;;50.72;26.50;;;14.50;99.90;;;;;;5000803;28;20566;-82
2023/04/17 08:25:27;;;;;;;53.97;27.65;;;14.50;99.90;;;;;;5004642;28;20033;-85
2023/04/17 08:27:53;;;;;;;55.30;25.73;;;14.50;99.90;;;;;;4997367;28;20096;-85
2023/04/17 08:30:19;;;;;;;45.28;25.02;;;14.60;99.90;;;;;;4997355;28;20017;-83
2023/04/17 08:32:46;;;;;;;46.65;24.23;;;14.70;99.90;;;;;;4999218;28;20014;-85
2023/04/17 08:35:13;;;;;;;44.75;24.00;;;14.70;99.90;;;;;;5000918;28;20022;-85
2023/04/17 08:37:40;;;;;;;47.08;24.25;;;14.80;99.90;;;;;;4997768;28;20023;-84
2023/04/17 08:40:08;;;;;;;48.88;25.23;;;15.00;99.90;;;;;;5007800;28;20085;-84
2023/04/17 08:42:54;;;;;;;48.25;26.70;;;15.00;99.90;;;;;;5004518;28;20018;-84
2023/04/17 08:45:23;;;;;;;46.45;25.42;;;15.10;99.90;;;;;;4990249;28;20034;-84
2023/04/17 08:47:48;;;;;;;44.40;24.73;;;15.20;99.90;;;;;;5001250;28;20065;-84
2023/04/17 08:50:16;;;;;;;45.55;24.67;;;15.30;99.90;;;;;;4998689;28;20030;-85
2023/04/17 08:52:44;;;;;;;46.55;23.83;;;15.50;99.90;;;;;;5011242;28;20110;-85
2023/04/17 08:55:33;;;;;;;41.70;22.50;;;15.60;99.90;;;;;;4999881;28;20028;-90
2023/04/17 08:58:02;;;;;;;47.08;23.70;;;15.70;99.90;;;;;;4996515;28;20131;-85
2023/04/17 09:00:33;;;;;;;40.75;22.45;;;15.90;99.90;;;;;;5000316;28;20504;-84
2023/04/17 09:03:01;;;;;;;41.67;22.58;;;16.00;99.90;;;;;;4997729;28;20041;-84
2023/04/17 09:05:29;;;;;;;37.63;22.33;;;16.10;99.90;;;;;;4996278;28;20025;-85
2023/04/17 09:08:28;;;;;;;41.85;22.45;;;16.20;99.90;;;;;;4997047;28;20037;-85
2023/04/17 09:10:54;;;;;;;38.45;21.50;;;16.30;99.90;;;;;;4997719;28;20037;-85
2023/04/17 09:13:24;;;;;;;37.17;22.45;;;16.60;99.90;;;;;;4999050;28;20026;-84
2023/04/17 09:16:05;;;;;;;39.17;22.60;;;16.90;99.90;;;;;;4997912;28;20113;-84
2023/04/17 09:18:34;;;;;;;38.25;22.13;;;17.20;99.90;;;;;;4997188;28;20068;-85
2023/04/17 09:21:03;;;;;;;36.28;22.42;;;17.50;99.90;;;;;;4995598;28;20053;-84
2023/04/17 09:23:44;;;;;;;39.17;22.00;;;17.50;99.90;;;;;;4991832;28;20478;-84
2023/04/17 09:26:14;;;;;;;37.25;20.42;;;17.50;99.90;;;;;;4995056;28;20023;-86
2023/04/17 09:28:42;;;;;;;38.17;20.33;;;17.60;99.90;;;;;;5010308;28;20038;-84
2023/04/17 09:31:19;;;;;;;32.67;19.00;;;17.60;99.90;;;;;;4997681;28;20302;-83
2023/04/17 09:33:59;;;;;;;34.85;20.70;;;17.60;99.90;;;;;;5004252;28;20349;-86
2023/04/17 09:36:26;;;;;;;35.97;22.63;;;17.60;99.90;;;;;;5009133;28;20161;-83
2023/04/17 09:38:54;;;;;;;30.85;19.58;;;17.60;99.90;;;;;;4994696;28;20029;-86
2023/04/17 09:41:23;;;;;;;37.03;22.30;;;17.80;99.90;;;;;;4998609;28;20022;-86
2023/04/17 09:43:52;;;;;;;33.42;20.02;;;18.10;99.90;;;;;;5002114;28;20311;-86
2023/04/17 09:46:40;;;;;;;26.98;17.90;;;18.30;99.90;;;;;;4993807;28;20030;-86
2023/04/17 09:49:21;;;;;;;30.17;18.85;;;18.40;99.90;;;;;;4994143;28;20030;-86
2023/04/17 09:51:56;;;;;;;32.03;18.17;;;18.40;99.90;;;;;;4999733;28;20026;-86
2023/04/17 09:54:23;;;;;;;27.55;16.80;;;18.30;99.90;;;;;;4999613;28;20018;-87
2023/04/17 09:56:51;;;;;;;27.88;16.58;;;18.30;99.90;;;;;;4997450;28;20482;-86
2023/04/17 09:59:17;;;;;;;40.70;20.83;;;18.30;99.90;;;;;;4997679;28;20099;-83
2023/04/17 10:01:43;;;;;;;95.47;39.53;;;18.20;99.90;;;;;;5002972;28;20038;-82
2023/04/17 10:04:10;;;;;;;36.03;20.17;;;18.20;99.90;;;;;;5000298;28;20034;-84
2023/04/17 10:06:36;;;;;;;24.83;15.00;;;18.20;99.90;;;;;;4998623;28;20022;-85
2023/04/17 10:09:04;;;;;;;42.75;20.85;;;18.10;99.70;;;;;;5002666;28;20489;-83
2023/04/17 10:11:37;;;;;;;29.65;16.80;;;17.90;99.80;;;;;;4999862;28;20096;-84
2023/04/17 10:14:18;;;;;;;31.00;17.58;;;17.70;99.90;;;;;;5000520;28;20019;-86
2023/04/17 10:16:53;;;;;;;26.65;16.02;;;17.70;99.90;;;;;;4997245;28;20458;-87
2023/04/17 10:19:29;;;;;;;25.25;15.82;;;17.80;99.50;;;;;;5000058;28;20092;-85
2023/04/17 10:22:19;;;;;;;24.92;16.02;;;17.70;99.80;;;;;;5002034;28;20014;-86
2023/04/17 10:24:54;;;;;;;26.27;15.07;;;17.80;99.40;;;;;;5007768;28;20042;-86
2023/04/17 10:27:26;;;;;;;33.25;15.57;;;17.80;99.30;;;;;;4997628;28;20029;-87
2023/04/17 10:29:54;;;;;;;26.48;14.05;;;18.10;98.90;;;;;;4999910;28;20409;-87
2023/04/17 10:32:24;;;;;;;24.15;15.82;;;18.50;98.30;;;;;;5002219;28;20030;-86
2023/04/17 10:34:53;;;;;;;28.27;18.27;;;18.70;97.50;;;;;;5002700;28;20260;-86
2023/04/17 10:37:21;;;;;;;43.53;21.20;;;18.80;97.90;;;;;;5000018;28;20440;-92
2023/04/17 10:39:53;;;;;;;24.92;13.38;;;18.80;97.40;;;;;;4997277;28;20028;-86
2023/04/17 10:42:21;;;;;;;25.58;15.05;;;18.70;95.70;;;;;;5001286;28;20101;-86
2023/04/17 10:44:47;;;;;;;23.20;15.27;;;18.80;95.70;;;;;;5000312;28;20073;-86
2023/04/17 10:47:14;;;;;;;27.25;14.20;;;18.80;95.30;;;;;;4998414;28;20054;-86
2023/04/17 10:50:07;;;;;;;25.25;14.80;;;18.60;94.90;;;;;;5002055;28;20083;-86
2023/04/17 10:52:39;;;;;;;;;;;18.60;95.00;;;;;;4991303;28;20030;-86
2023/04/17 10:55:13;;;;;;;21.38;15.25;;;18.80;95.20;;;;;;5019997;28;20369;-86
2023/04/17 10:58:03;;;;;;;23.55;15.35;;;19.20;95.20;;;;;;5018802;28;20090;-84
2023/04/17 11:00:56;;;;;;;28.40;14.57;;;19.50;93.70;;;;;;5013707;28;20018;-84
2023/04/17 11:03:24;;;;;;;23.50;14.35;;;19.70;93.30;;;;;;4981931;28;20250;-84
2023/04/17 11:05:53;;;;;;;27.95;14.80;;;19.60;92.40;;;;;;5001152;28;20061;-84
2023/04/17 11:08:19;;;;;;;24.45;15.07;;;19.50;92.70;;;;;;5001075;28;20062;-86
2023/04/17 11:10:50;;;;;;;22.15;14.25;;;19.80;92.10;;;;;;5000629;28;20045;-84
2023/04/17 11:13:16;;;;;;;22.73;13.90;;;20.00;91.00;;;;;;5000348;28;20048;-83
2023/04/17 11:15:42;;;;;;;74.95;35.42;;;20.10;90.50;;;;;;5013193;28;20026;-88
2023/04/17 11:18:15;;;;;;;114.90;54.20;;;19.90;89.70;;;;;;5021048;28;20042;-85
2023/04/17 11:20:41;;;;;;;21.67;13.82;;;19.70;88.50;;;;;;5015813;28;20037;-86
2023/04/17 11:23:14;;;;;;;21.95;13.30;;;19.60;88.30;;;;;;5000230;28;20034;-85
2023/04/17 11:25:40;;;;;;;21.05;13.88;;;19.70;88.00;;;;;;4996205;28;20348;-84
2023/04/17 11:28:06;;;;;;;22.40;14.13;;;20.20;87.20;;;;;;4998296;28;20414;-84
2023/04/17 11:30:36;;;;;;;19.33;13.10;;;20.80;87.90;;;;;;4998405;28;20029;-85
2023/04/17 11:33:06;;;;;;;22.52;14.43;;;21.00;85.90;;;;;;5001069;28;20037;-86
2023/04/17 11:35:37;;;;;;;22.75;14.15;;;21.30;83.00;;;;;;4998638;28;20029;-83
2023/04/17 11:38:22;;;;;;;21.00;12.73;;;21.50;80.90;;;;;;5000272;28;20023;-83
2023/04/17 11:40:53;;;;;;;22.95;13.15;;;21.50;80.10;;;;;;5002721;28;20026;-84
2023/04/17 11:43:20;;;;;;;19.15;12.82;;;21.10;78.70;;;;;;4995614;28;20653;-84
2023/04/17 11:45:52;;;;;;;19.77;12.95;;;20.60;77.90;;;;;;5002191;28;20220;-83
2023/04/17 11:48:22;;;;;;;21.73;12.85;;;20.30;78.30;;;;;;5001829;28;20034;-84
2023/04/17 11:50:52;;;;;;;20.30;13.57;;;20.50;79.60;;;;;;5003453;28;20534;-84
2023/04/17 11:53:18;;;;;;;18.83;14.30;;;20.90;79.40;;;;;;4998356;28;20478;-85
2023/04/17 11:55:48;;;;;;;20.20;13.98;;;21.10;78.30;;;;;;5000169;28;20251;-96
2023/04/17 12:01:05;;;;;;;20.13;12.05;;;21.10;76.50;;;;;;5579848;22;20409;-83
2023/04/17 12:03:35;;;;;;;20.38;12.20;;;20.60;75.30;;;;;;5018639;28;20540;-82
2023/04/17 12:06:05;;;;;;;16.90;12.13;;;20.60;74.80;;;;;;5040055;28;20441;-83
2023/04/17 12:08:41;;;;;;;19.77;11.68;;;21.00;74.60;;;;;;5018784;28;20044;-83
2023/04/17 12:11:06;;;;;;;19.13;12.90;;;21.70;76.00;;;;;;5012703;28;20053;-83
2023/04/17 12:13:34;;;;;;;21.70;13.07;;;22.10;71.30;;;;;;5014023;28;20066;-86
2023/04/17 12:16:00;;;;;;;21.67;13.20;;;21.90;71.20;;;;;;5014370;28;20431;-87
2023/04/17 12:18:28;;;;;;;19.23;11.98;;;21.70;71.50;;;;;;5014880;28;20026;-85
2023/04/17 12:20:53;;;;;;;19.70;11.73;;;21.80;69.10;;;;;;5017111;28;20026;-89
2023/04/17 12:23:19;;;;;;;17.98;12.65;;;21.90;68.90;;;;;;5018743;28;20065;-89
2023/04/17 12:25:45;;;;;;;22.10;12.55;;;22.20;67.40;;;;;;5018878;28;20648;-89
2023/04/17 12:28:17;;;;;;;20.70;11.63;;;22.10;68.90;;;;;;5017215;28;20034;-88
2023/04/17 12:31:03;;;;;;;;;;;22.30;67.90;;;;;;5023516;28;20032;-96
2023/04/17 12:33:29;;;;;;;20.85;11.13;;;22.40;65.70;;;;;;5024023;28;19955;-88
2023/04/17 12:35:55;;;;;;;18.73;11.73;;;22.60;64.40;;;;;;5021991;28;20252;-87